sensor_id;sensor_type;location;lat;lon;timestamp;pressure;altitude;pressure_sealevel;temperature
9119;BMP180;4594;50.994;7.126;2022-08-30T00:00:17;101026.00;;;24.60
9119;BMP180;4594;50.994;7.126;2022-08-30T00:03:04;101017.00;;;24.50
9119;BMP180;4594;50.994;7.126;2022-08-30T00:05:32;101021.00;;;24.50
9119;BMP180;4594;50.994;7.126;2022-08-30T00:07:58;101015.00;;;24.50
9119;BMP180;4594;50.994;7.126;2022-08-30T00:10:26;101006.00;;;24.40
9119;BMP180;4594;50.994;7.126;2022-08-30T00:12:54;101019.00;;;24.30
9119;BMP180;4594;50.994;7.126;2022-08-30T00:15:20;101015.00;;;24.30
9119;BMP180;4594;50.994;7.126;2022-08-30T00:17:46;101025.00;;;24.30
9119;BMP180;4594;50.994;7.126;2022-08-30T00:20:17;101030.00;;;24.20
9119;BMP180;4594;50.994;7.126;2022-08-30T00:22:43;101030.00;;;24.20
9119;BMP180;4594;50.994;7.126;2022-08-30T00:25:10;101031.00;;;24.10
9119;BMP180;4594;50.994;7.126;2022-08-30T00:27:37;101035.00;;;24.10
9119;BMP180;4594;50.994;7.126;2022-08-30T00:30:04;101019.00;;;24.00
9119;BMP180;4594;50.994;7.126;2022-08-30T00:32:30;101020.00;;;24.00
9119;BMP180;4594;50.994;7.126;2022-08-30T00:34:56;101023.00;;;24.00
9119;BMP180;4594;50.994;7.126;2022-08-30T00:37:22;101022.00;;;23.90
9119;BMP180;4594;50.994;7.126;2022-08-30T00:39:48;101022.00;;;23.90
9119;BMP180;4594;50.994;7.126;2022-08-30T00:42:16;101026.00;;;23.80
9119;BMP180;4594;50.994;7.126;2022-08-30T00:44:42;101028.00;;;23.80
9119;BMP180;4594;50.994;7.126;2022-08-30T00:47:09;101022.00;;;23.70
9119;BMP180;4594;50.994;7.126;2022-08-30T00:49:37;101036.00;;;23.70
9119;BMP180;4594;50.994;7.126;2022-08-30T00:52:05;101032.00;;;23.60
9119;BMP180;4594;50.994;7.126;2022-08-30T00:54:34;101037.00;;;23.60
9119;BMP180;4594;50.994;7.126;2022-08-30T00:57:03;101031.00;;;23.60
9119;BMP180;4594;50.994;7.126;2022-08-30T00:59:29;101031.00;;;23.60
9119;BMP180;4594;50.994;7.126;2022-08-30T01:01:55;101026.00;;;23.60
9119;BMP180;4594;50.994;7.126;2022-08-30T01:04:24;101030.00;;;23.60
9119;BMP180;4594;50.994;7.126;2022-08-30T01:06:51;101029.00;;;23.60
9119;BMP180;4594;50.994;7.126;2022-08-30T01:09:17;101033.00;;;23.60
9119;BMP180;4594;50.994;7.126;2022-08-30T01:11:44;101034.00;;;23.60
9119;BMP180;4594;50.994;7.126;2022-08-30T01:14:12;101036.00;;;23.70
9119;BMP180;4594;50.994;7.126;2022-08-30T01:16:41;101039.00;;;23.70
9119;BMP180;4594;50.994;7.126;2022-08-30T01:19:50;101025.00;;;23.70
9119;BMP180;4594;50.994;7.126;2022-08-30T01:25:24;101031.00;;;23.70
9119;BMP180;4594;50.994;7.126;2022-08-30T01:27:57;101027.00;;;23.60
9119;BMP180;4594;50.994;7.126;2022-08-30T01:30:24;101039.00;;;23.70
9119;BMP180;4594;50.994;7.126;2022-08-30T01:32:58;101040.00;;;23.60
9119;BMP180;4594;50.994;7.126;2022-08-30T01:35:24;101046.00;;;23.60
9119;BMP180;4594;50.994;7.126;2022-08-30T01:37:50;101042.00;;;23.60
9119;BMP180;4594;50.994;7.126;2022-08-30T01:40:16;101051.00;;;23.60
9119;BMP180;4594;50.994;7.126;2022-08-30T01:42:43;101055.00;;;23.60
9119;BMP180;4594;50.994;7.126;2022-08-30T01:45:09;101061.00;;;23.60
9119;BMP180;4594;50.994;7.126;2022-08-30T01:47:36;101061.00;;;23.60
9119;BMP180;4594;50.994;7.126;2022-08-30T01:50:04;101056.00;;;23.70
9119;BMP180;4594;50.994;7.126;2022-08-30T01:52:29;101061.00;;;23.70
9119;BMP180;4594;50.994;7.126;2022-08-30T01:54:55;101057.00;;;23.70
9119;BMP180;4594;50.994;7.126;2022-08-30T01:57:22;101059.00;;;23.70
9119;BMP180;4594;50.994;7.126;2022-08-30T01:59:51;101070.00;;;23.70
9119;BMP180;4594;50.994;7.126;2022-08-30T02:02:24;101057.00;;;23.80
9119;BMP180;4594;50.994;7.126;2022-08-30T02:04:52;101056.00;;;23.80
9119;BMP180;4594;50.994;7.126;2022-08-30T02:07:20;101062.00;;;23.80
9119;BMP180;4594;50.994;7.126;2022-08-30T02:09:46;101040.00;;;23.80
9119;BMP180;4594;50.994;7.126;2022-08-30T02:12:13;101050.00;;;23.80
9119;BMP180;4594;50.994;7.126;2022-08-30T02:14:39;101046.00;;;23.80
9119;BMP180;4594;50.994;7.126;2022-08-30T02:17:08;101054.00;;;23.80
9119;BMP180;4594;50.994;7.126;2022-08-30T02:19:35;101058.00;;;23.80
9119;BMP180;4594;50.994;7.126;2022-08-30T02:22:01;101059.00;;;23.80
9119;BMP180;4594;50.994;7.126;2022-08-30T02:24:27;101069.00;;;23.80
9119;BMP180;4594;50.994;7.126;2022-08-30T02:26:53;101063.00;;;23.80
9119;BMP180;4594;50.994;7.126;2022-08-30T02:29:21;101052.00;;;23.80
9119;BMP180;4594;50.994;7.126;2022-08-30T02:31:47;101067.00;;;23.80
9119;BMP180;4594;50.994;7.126;2022-08-30T02:34:14;101062.00;;;23.90
9119;BMP180;4594;50.994;7.126;2022-08-30T02:36:40;101061.00;;;23.80
9119;BMP180;4594;50.994;7.126;2022-08-30T02:39:08;101062.00;;;23.80
9119;BMP180;4594;50.994;7.126;2022-08-30T02:41:34;101061.00;;;23.80
9119;BMP180;4594;50.994;7.126;2022-08-30T02:44:00;101062.00;;;23.80
9119;BMP180;4594;50.994;7.126;2022-08-30T02:46:27;101055.00;;;23.80
9119;BMP180;4594;50.994;7.126;2022-08-30T02:48:53;101054.00;;;23.80
9119;BMP180;4594;50.994;7.126;2022-08-30T02:51:18;101054.00;;;23.80
9119;BMP180;4594;50.994;7.126;2022-08-30T02:53:45;101044.00;;;23.80
9119;BMP180;4594;50.994;7.126;2022-08-30T02:56:13;101044.00;;;23.80
9119;BMP180;4594;50.994;7.126;2022-08-30T02:58:41;101036.00;;;23.80
9119;BMP180;4594;50.994;7.126;2022-08-30T03:01:10;101038.00;;;23.70
9119;BMP180;4594;50.994;7.126;2022-08-30T03:03:38;101042.00;;;23.70
9119;BMP180;4594;50.994;7.126;2022-08-30T03:06:04;101021.00;;;23.70
9119;BMP180;4594;50.994;7.126;2022-08-30T03:08:31;101037.00;;;23.70
9119;BMP180;4594;50.994;7.126;2022-08-30T03:10:58;101039.00;;;23.70
9119;BMP180;4594;50.994;7.126;2022-08-30T03:13:25;101034.00;;;23.60
9119;BMP180;4594;50.994;7.126;2022-08-30T03:15:51;101026.00;;;23.60
9119;BMP180;4594;50.994;7.126;2022-08-30T03:18:19;101032.00;;;23.60
9119;BMP180;4594;50.994;7.126;2022-08-30T03:20:46;101031.00;;;23.60
9119;BMP180;4594;50.994;7.126;2022-08-30T03:23:13;101039.00;;;23.60
9119;BMP180;4594;50.994;7.126;2022-08-30T03:25:39;101027.00;;;23.50
9119;BMP180;4594;50.994;7.126;2022-08-30T03:28:05;101042.00;;;23.50
9119;BMP180;4594;50.994;7.126;2022-08-30T03:30:33;101037.00;;;23.40
9119;BMP180;4594;50.994;7.126;2022-08-30T03:33:00;101039.00;;;23.40
9119;BMP180;4594;50.994;7.126;2022-08-30T03:35:27;101019.00;;;23.30
9119;BMP180;4594;50.994;7.126;2022-08-30T03:37:52;101021.00;;;23.30
9119;BMP180;4594;50.994;7.126;2022-08-30T03:40:20;101023.00;;;23.20
9119;BMP180;4594;50.994;7.126;2022-08-30T03:42:47;101024.00;;;23.20
9119;BMP180;4594;50.994;7.126;2022-08-30T03:45:16;101028.00;;;23.10
9119;BMP180;4594;50.994;7.126;2022-08-30T03:47:43;101018.00;;;23.10
9119;BMP180;4594;50.994;7.126;2022-08-30T03:50:11;101023.00;;;23.00
9119;BMP180;4594;50.994;7.126;2022-08-30T03:52:38;101019.00;;;23.00
9119;BMP180;4594;50.994;7.126;2022-08-30T03:55:05;101020.00;;;23.00
9119;BMP180;4594;50.994;7.126;2022-08-30T03:57:31;101030.00;;;22.90
9119;BMP180;4594;50.994;7.126;2022-08-30T03:59:57;101024.00;;;22.90
9119;BMP180;4594;50.994;7.126;2022-08-30T04:02:22;101026.00;;;22.90
9119;BMP180;4594;50.994;7.126;2022-08-30T04:04:48;101019.00;;;22.80
9119;BMP180;4594;50.994;7.126;2022-08-30T04:07:14;101025.00;;;22.80
9119;BMP180;4594;50.994;7.126;2022-08-30T04:09:40;101026.00;;;22.70
9119;BMP180;4594;50.994;7.126;2022-08-30T04:12:06;101024.00;;;22.70
9119;BMP180;4594;50.994;7.126;2022-08-30T04:14:32;101028.00;;;22.70
9119;BMP180;4594;50.994;7.126;2022-08-30T04:16:59;101026.00;;;22.60
9119;BMP180;4594;50.994;7.126;2022-08-30T04:19:24;101028.00;;;22.50
9119;BMP180;4594;50.994;7.126;2022-08-30T04:21:50;101021.00;;;22.50
9119;BMP180;4594;50.994;7.126;2022-08-30T04:24:16;101014.00;;;22.40
9119;BMP180;4594;50.994;7.126;2022-08-30T04:26:42;101028.00;;;22.40
9119;BMP180;4594;50.994;7.126;2022-08-30T04:29:08;101029.00;;;22.30
9119;BMP180;4594;50.994;7.126;2022-08-30T04:31:36;101027.00;;;22.20
9119;BMP180;4594;50.994;7.126;2022-08-30T04:34:01;101022.00;;;22.20
9119;BMP180;4594;50.994;7.126;2022-08-30T04:36:27;101026.00;;;22.10
9119;BMP180;4594;50.994;7.126;2022-08-30T04:38:53;101032.00;;;22.10
9119;BMP180;4594;50.994;7.126;2022-08-30T04:41:19;101031.00;;;22.00
9119;BMP180;4594;50.994;7.126;2022-08-30T04:43:47;101036.00;;;22.00
9119;BMP180;4594;50.994;7.126;2022-08-30T04:46:18;101044.00;;;21.90
9119;BMP180;4594;50.994;7.126;2022-08-30T04:48:44;101043.00;;;21.90
9119;BMP180;4594;50.994;7.126;2022-08-30T04:51:14;101032.00;;;21.90
9119;BMP180;4594;50.994;7.126;2022-08-30T04:53:41;101035.00;;;21.80
9119;BMP180;4594;50.994;7.126;2022-08-30T04:56:14;101041.00;;;21.80
9119;BMP180;4594;50.994;7.126;2022-08-30T04:58:45;101040.00;;;21.80
9119;BMP180;4594;50.994;7.126;2022-08-30T05:01:17;101047.00;;;21.70
9119;BMP180;4594;50.994;7.126;2022-08-30T05:03:43;101046.00;;;21.70
9119;BMP180;4594;50.994;7.126;2022-08-30T05:06:13;101056.00;;;21.70
9119;BMP180;4594;50.994;7.126;2022-08-30T05:08:39;101050.00;;;21.70
9119;BMP180;4594;50.994;7.126;2022-08-30T05:11:06;101060.00;;;21.70
9119;BMP180;4594;50.994;7.126;2022-08-30T05:13:33;101063.00;;;21.70
9119;BMP180;4594;50.994;7.126;2022-08-30T05:16:00;101063.00;;;21.70
9119;BMP180;4594;50.994;7.126;2022-08-30T05:18:26;101049.00;;;21.70
9119;BMP180;4594;50.994;7.126;2022-08-30T05:21:03;101064.00;;;21.80
9119;BMP180;4594;50.994;7.126;2022-08-30T05:23:29;101045.00;;;21.80
9119;BMP180;4594;50.994;7.126;2022-08-30T05:25:55;101061.00;;;21.80
9119;BMP180;4594;50.994;7.126;2022-08-30T05:28:21;101058.00;;;21.90
9119;BMP180;4594;50.994;7.126;2022-08-30T05:30:46;101055.00;;;22.00
9119;BMP180;4594;50.994;7.126;2022-08-30T05:33:12;101060.00;;;22.00
9119;BMP180;4594;50.994;7.126;2022-08-30T05:35:38;101061.00;;;22.10
9119;BMP180;4594;50.994;7.126;2022-08-30T05:38:05;101045.00;;;22.20
9119;BMP180;4594;50.994;7.126;2022-08-30T05:40:30;101057.00;;;22.20
9119;BMP180;4594;50.994;7.126;2022-08-30T05:42:56;101063.00;;;22.30
9119;BMP180;4594;50.994;7.126;2022-08-30T05:45:22;101052.00;;;22.30
9119;BMP180;4594;50.994;7.126;2022-08-30T05:47:47;101050.00;;;22.50
9119;BMP180;4594;50.994;7.126;2022-08-30T05:50:13;101057.00;;;22.70
9119;BMP180;4594;50.994;7.126;2022-08-30T05:52:41;101060.00;;;22.90
9119;BMP180;4594;50.994;7.126;2022-08-30T05:55:09;101051.00;;;23.10
9119;BMP180;4594;50.994;7.126;2022-08-30T05:57:37;101058.00;;;23.30
9119;BMP180;4594;50.994;7.126;2022-08-30T06:00:21;101058.00;;;23.50
9119;BMP180;4594;50.994;7.126;2022-08-30T06:02:52;101045.00;;;23.80
9119;BMP180;4594;50.994;7.126;2022-08-30T06:05:18;101053.00;;;24.10
9119;BMP180;4594;50.994;7.126;2022-08-30T06:07:44;101053.00;;;24.30
9119;BMP180;4594;50.994;7.126;2022-08-30T06:10:10;101062.00;;;24.50
9119;BMP180;4594;50.994;7.126;2022-08-30T06:12:36;101062.00;;;24.80
9119;BMP180;4594;50.994;7.126;2022-08-30T06:15:02;101059.00;;;25.10
9119;BMP180;4594;50.994;7.126;2022-08-30T06:17:28;101062.00;;;25.30
9119;BMP180;4594;50.994;7.126;2022-08-30T06:19:54;101068.00;;;25.50
9119;BMP180;4594;50.994;7.126;2022-08-30T06:22:19;101067.00;;;25.80
9119;BMP180;4594;50.994;7.126;2022-08-30T06:24:45;101074.00;;;26.10
9119;BMP180;4594;50.994;7.126;2022-08-30T06:27:11;101064.00;;;26.30
9119;BMP180;4594;50.994;7.126;2022-08-30T06:29:36;101068.00;;;26.40
9119;BMP180;4594;50.994;7.126;2022-08-30T06:32:02;101061.00;;;26.50
9119;BMP180;4594;50.994;7.126;2022-08-30T06:34:28;101052.00;;;26.60
9119;BMP180;4594;50.994;7.126;2022-08-30T06:36:54;101049.00;;;26.80
9119;BMP180;4594;50.994;7.126;2022-08-30T06:39:20;101057.00;;;27.00
9119;BMP180;4594;50.994;7.126;2022-08-30T06:41:45;101043.00;;;27.30
9119;BMP180;4594;50.994;7.126;2022-08-30T06:44:11;101050.00;;;27.60
9119;BMP180;4594;50.994;7.126;2022-08-30T06:46:38;101046.00;;;27.90
9119;BMP180;4594;50.994;7.126;2022-08-30T06:49:05;101052.00;;;28.20
9119;BMP180;4594;50.994;7.126;2022-08-30T06:51:36;101053.00;;;28.50
9119;BMP180;4594;50.994;7.126;2022-08-30T06:54:04;101055.00;;;28.90
9119;BMP180;4594;50.994;7.126;2022-08-30T06:56:31;101054.00;;;29.10
9119;BMP180;4594;50.994;7.126;2022-08-30T06:58:57;101057.00;;;29.40
9119;BMP180;4594;50.994;7.126;2022-08-30T07:01:26;101061.00;;;29.80
9119;BMP180;4594;50.994;7.126;2022-08-30T07:03:53;101054.00;;;30.20
9119;BMP180;4594;50.994;7.126;2022-08-30T07:06:21;101054.00;;;30.50
9119;BMP180;4594;50.994;7.126;2022-08-30T07:08:48;101066.00;;;30.70
9119;BMP180;4594;50.994;7.126;2022-08-30T07:13:50;101060.00;;;31.10
9119;BMP180;4594;50.994;7.126;2022-08-30T07:16:16;101059.00;;;31.40
9119;BMP180;4594;50.994;7.126;2022-08-30T07:18:42;101066.00;;;31.70
9119;BMP180;4594;50.994;7.126;2022-08-30T07:21:24;101071.00;;;32.00
9119;BMP180;4594;50.994;7.126;2022-08-30T07:23:52;101068.00;;;32.20
9119;BMP180;4594;50.994;7.126;2022-08-30T07:26:26;101075.00;;;32.60
9119;BMP180;4594;50.994;7.126;2022-08-30T07:28:53;101071.00;;;33.00
9119;BMP180;4594;50.994;7.126;2022-08-30T07:31:19;101074.00;;;33.50
9119;BMP180;4594;50.994;7.126;2022-08-30T07:33:46;101077.00;;;34.00
9119;BMP180;4594;50.994;7.126;2022-08-30T07:36:13;101070.00;;;34.40
9119;BMP180;4594;50.994;7.126;2022-08-30T07:38:41;101081.00;;;34.60
9119;BMP180;4594;50.994;7.126;2022-08-30T07:41:07;101074.00;;;34.60
9119;BMP180;4594;50.994;7.126;2022-08-30T07:43:35;101089.00;;;34.50
9119;BMP180;4594;50.994;7.126;2022-08-30T07:46:04;101082.00;;;34.40
9119;BMP180;4594;50.994;7.126;2022-08-30T07:48:31;101094.00;;;34.30
9119;BMP180;4594;50.994;7.126;2022-08-30T07:50:57;101091.00;;;34.30
9119;BMP180;4594;50.994;7.126;2022-08-30T07:53:23;101106.00;;;34.50
9119;BMP180;4594;50.994;7.126;2022-08-30T07:55:49;101090.00;;;34.80
9119;BMP180;4594;50.994;7.126;2022-08-30T07:58:15;101103.00;;;35.00
9119;BMP180;4594;50.994;7.126;2022-08-30T08:00:40;101090.00;;;35.10
9119;BMP180;4594;50.994;7.126;2022-08-30T08:03:08;101099.00;;;35.10
9119;BMP180;4594;50.994;7.126;2022-08-30T08:05:43;101101.00;;;34.80
9119;BMP180;4594;50.994;7.126;2022-08-30T08:08:11;101102.00;;;34.50
9119;BMP180;4594;50.994;7.126;2022-08-30T08:10:39;101107.00;;;34.50
9119;BMP180;4594;50.994;7.126;2022-08-30T08:13:06;101103.00;;;34.80
9119;BMP180;4594;50.994;7.126;2022-08-30T08:15:32;101092.00;;;34.90
9119;BMP180;4594;50.994;7.126;2022-08-30T08:17:58;101105.00;;;34.90
9119;BMP180;4594;50.994;7.126;2022-08-30T08:20:24;101094.00;;;34.80
9119;BMP180;4594;50.994;7.126;2022-08-30T08:22:51;101106.00;;;35.00
9119;BMP180;4594;50.994;7.126;2022-08-30T08:25:17;101103.00;;;35.40
9119;BMP180;4594;50.994;7.126;2022-08-30T08:27:46;101107.00;;;35.70
9119;BMP180;4594;50.994;7.126;2022-08-30T08:30:13;101110.00;;;35.90
9119;BMP180;4594;50.994;7.126;2022-08-30T08:32:39;101104.00;;;36.20
9119;BMP180;4594;50.994;7.126;2022-08-30T08:35:05;101101.00;;;36.10
9119;BMP180;4594;50.994;7.126;2022-08-30T08:37:31;101100.00;;;36.10
9119;BMP180;4594;50.994;7.126;2022-08-30T08:39:57;101095.00;;;36.00
9119;BMP180;4594;50.994;7.126;2022-08-30T08:43:04;101092.00;;;36.10
9119;BMP180;4594;50.994;7.126;2022-08-30T08:48:54;101109.00;;;36.70
9119;BMP180;4594;50.994;7.126;2022-08-30T08:51:32;101095.00;;;36.60
9119;BMP180;4594;50.994;7.126;2022-08-30T08:54:40;101105.00;;;37.30
9119;BMP180;4594;50.994;7.126;2022-08-30T08:57:09;101091.00;;;37.40
9119;BMP180;4594;50.994;7.126;2022-08-30T08:59:36;101103.00;;;37.40
9119;BMP180;4594;50.994;7.126;2022-08-30T09:02:41;101102.00;;;37.40
9119;BMP180;4594;50.994;7.126;2022-08-30T09:05:12;101094.00;;;37.80
9119;BMP180;4594;50.994;7.126;2022-08-30T09:07:48;101100.00;;;37.80
9119;BMP180;4594;50.994;7.126;2022-08-30T09:10:15;101092.00;;;37.60
9119;BMP180;4594;50.994;7.126;2022-08-30T09:12:41;101089.00;;;37.30
9119;BMP180;4594;50.994;7.126;2022-08-30T09:15:26;101075.00;;;37.30
9119;BMP180;4594;50.994;7.126;2022-08-30T09:18:00;101079.00;;;38.20
9119;BMP180;4594;50.994;7.126;2022-08-30T09:20:33;101075.00;;;39.30
9119;BMP180;4594;50.994;7.126;2022-08-30T09:23:22;101084.00;;;39.90
9119;BMP180;4594;50.994;7.126;2022-08-30T09:28:44;101086.00;;;39.50
9119;BMP180;4594;50.994;7.126;2022-08-30T09:31:44;101082.00;;;39.30
9119;BMP180;4594;50.994;7.126;2022-08-30T09:34:18;101071.00;;;39.50
9119;BMP180;4594;50.994;7.126;2022-08-30T09:36:51;101060.00;;;40.10
9119;BMP180;4594;50.994;7.126;2022-08-30T09:41:48;101066.00;;;41.20
9119;BMP180;4594;50.994;7.126;2022-08-30T09:44:22;101069.00;;;41.30
9119;BMP180;4594;50.994;7.126;2022-08-30T09:46:58;101077.00;;;40.90
9119;BMP180;4594;50.994;7.126;2022-08-30T09:49:40;101067.00;;;40.60
9119;BMP180;4594;50.994;7.126;2022-08-30T09:55:41;101060.00;;;40.60
9119;BMP180;4594;50.994;7.126;2022-08-30T09:58:36;101058.00;;;40.90
9119;BMP180;4594;50.994;7.126;2022-08-30T10:01:26;101057.00;;;41.30
9119;BMP180;4594;50.994;7.126;2022-08-30T10:04:03;101051.00;;;41.60
9119;BMP180;4594;50.994;7.126;2022-08-30T10:06:40;101047.00;;;42.00
9119;BMP180;4594;50.994;7.126;2022-08-30T10:09:28;101045.00;;;42.50
9119;BMP180;4594;50.994;7.126;2022-08-30T10:12:04;101045.00;;;43.10
9119;BMP180;4594;50.994;7.126;2022-08-30T10:18:19;101038.00;;;43.40
9119;BMP180;4594;50.994;7.126;2022-08-30T10:21:03;101038.00;;;43.80
9119;BMP180;4594;50.994;7.126;2022-08-30T10:23:37;101044.00;;;43.80
9119;BMP180;4594;50.994;7.126;2022-08-30T10:26:32;101047.00;;;43.40
9119;BMP180;4594;50.994;7.126;2022-08-30T10:29:31;101050.00;;;42.80
9119;BMP180;4594;50.994;7.126;2022-08-30T10:32:38;101048.00;;;42.20
9119;BMP180;4594;50.994;7.126;2022-08-30T10:37:54;101047.00;;;41.40
9119;BMP180;4594;50.994;7.126;2022-08-30T10:40:30;101047.00;;;41.20
9119;BMP180;4594;50.994;7.126;2022-08-30T10:43:33;101043.00;;;40.90
9119;BMP180;4594;50.994;7.126;2022-08-30T10:46:11;101042.00;;;40.90
9119;BMP180;4594;50.994;7.126;2022-08-30T10:48:43;101035.00;;;40.80
9119;BMP180;4594;50.994;7.126;2022-08-30T10:51:20;101042.00;;;40.90
9119;BMP180;4594;50.994;7.126;2022-08-30T10:53:55;101049.00;;;40.70
9119;BMP180;4594;50.994;7.126;2022-08-30T10:56:25;101042.00;;;40.70
9119;BMP180;4594;50.994;7.126;2022-08-30T10:58:54;101044.00;;;40.50
9119;BMP180;4594;50.994;7.126;2022-08-30T11:04:38;101033.00;;;40.70
9119;BMP180;4594;50.994;7.126;2022-08-30T11:10:21;101038.00;;;41.10
9119;BMP180;4594;50.994;7.126;2022-08-30T11:13:02;101047.00;;;41.00
9119;BMP180;4594;50.994;7.126;2022-08-30T11:15:35;101048.00;;;40.80
9119;BMP180;4594;50.994;7.126;2022-08-30T11:20:45;101037.00;;;40.70
9119;BMP180;4594;50.994;7.126;2022-08-30T11:33:56;101037.00;;;41.80
9119;BMP180;4594;50.994;7.126;2022-08-30T11:41:43;101032.00;;;40.90
9119;BMP180;4594;50.994;7.126;2022-08-30T11:46:49;101026.00;;;40.20
9119;BMP180;4594;50.994;7.126;2022-08-30T11:52:21;101031.00;;;39.20
9119;BMP180;4594;50.994;7.126;2022-08-30T11:55:26;101027.00;;;38.80
9119;BMP180;4594;50.994;7.126;2022-08-30T11:58:07;101031.00;;;38.50
9119;BMP180;4594;50.994;7.126;2022-08-30T12:00:38;101019.00;;;38.30
9119;BMP180;4594;50.994;7.126;2022-08-30T12:03:07;101017.00;;;38.20
9119;BMP180;4594;50.994;7.126;2022-08-30T12:05:55;101007.00;;;38.00
9119;BMP180;4594;50.994;7.126;2022-08-30T12:16:06;101015.00;;;37.40
9119;BMP180;4594;50.994;7.126;2022-08-30T12:18:57;101008.00;;;37.30
9119;BMP180;4594;50.994;7.126;2022-08-30T12:21:36;101003.00;;;37.20
9119;BMP180;4594;50.994;7.126;2022-08-30T12:24:15;100998.00;;;37.20
9119;BMP180;4594;50.994;7.126;2022-08-30T12:26:46;100987.00;;;37.10
9119;BMP180;4594;50.994;7.126;2022-08-30T12:29:24;100999.00;;;37.10
9119;BMP180;4594;50.994;7.126;2022-08-30T12:32:00;101005.00;;;37.00
9119;BMP180;4594;50.994;7.126;2022-08-30T12:34:27;100993.00;;;37.00
9119;BMP180;4594;50.994;7.126;2022-08-30T12:37:05;101001.00;;;36.90
9119;BMP180;4594;50.994;7.126;2022-08-30T12:39:43;100996.00;;;36.80
9119;BMP180;4594;50.994;7.126;2022-08-30T12:42:24;100995.00;;;36.70
9119;BMP180;4594;50.994;7.126;2022-08-30T12:44:54;100991.00;;;36.60
9119;BMP180;4594;50.994;7.126;2022-08-30T12:47:29;100985.00;;;36.50
9119;BMP180;4594;50.994;7.126;2022-08-30T12:49:57;100984.00;;;36.40
9119;BMP180;4594;50.994;7.126;2022-08-30T12:52:35;100985.00;;;36.30
9119;BMP180;4594;50.994;7.126;2022-08-30T12:55:16;100985.00;;;36.20
9119;BMP180;4594;50.994;7.126;2022-08-30T12:58:02;100986.00;;;36.00
9119;BMP180;4594;50.994;7.126;2022-08-30T13:00:43;100985.00;;;35.80
9119;BMP180;4594;50.994;7.126;2022-08-30T13:05:48;100977.00;;;35.50
9119;BMP180;4594;50.994;7.126;2022-08-30T13:08:48;100964.00;;;35.30
9119;BMP180;4594;50.994;7.126;2022-08-30T13:11:24;100972.00;;;35.20
9119;BMP180;4594;50.994;7.126;2022-08-30T13:13:55;100964.00;;;35.10
9119;BMP180;4594;50.994;7.126;2022-08-30T13:16:49;100970.00;;;35.10
9119;BMP180;4594;50.994;7.126;2022-08-30T13:19:35;100965.00;;;35.00
9119;BMP180;4594;50.994;7.126;2022-08-30T13:22:02;100957.00;;;34.90
9119;BMP180;4594;50.994;7.126;2022-08-30T13:24:29;100961.00;;;34.90
9119;BMP180;4594;50.994;7.126;2022-08-30T13:27:04;100968.00;;;34.90
9119;BMP180;4594;50.994;7.126;2022-08-30T13:29:32;100957.00;;;34.80
9119;BMP180;4594;50.994;7.126;2022-08-30T13:31:58;100954.00;;;34.80
9119;BMP180;4594;50.994;7.126;2022-08-30T13:34:23;100940.00;;;34.70
9119;BMP180;4594;50.994;7.126;2022-08-30T13:36:56;100944.00;;;34.70
9119;BMP180;4594;50.994;7.126;2022-08-30T13:39:22;100943.00;;;34.70
9119;BMP180;4594;50.994;7.126;2022-08-30T13:41:49;100938.00;;;34.60
9119;BMP180;4594;50.994;7.126;2022-08-30T13:44:15;100945.00;;;34.50
9119;BMP180;4594;50.994;7.126;2022-08-30T13:46:45;100942.00;;;34.40
9119;BMP180;4594;50.994;7.126;2022-08-30T13:49:33;100942.00;;;34.30
9119;BMP180;4594;50.994;7.126;2022-08-30T13:52:02;100950.00;;;34.30
9119;BMP180;4594;50.994;7.126;2022-08-30T13:54:28;100935.00;;;34.20
9119;BMP180;4594;50.994;7.126;2022-08-30T13:56:54;100945.00;;;34.20
9119;BMP180;4594;50.994;7.126;2022-08-30T13:59:21;100937.00;;;34.10
9119;BMP180;4594;50.994;7.126;2022-08-30T14:01:50;100943.00;;;34.10
9119;BMP180;4594;50.994;7.126;2022-08-30T14:04:16;100940.00;;;34.00
9119;BMP180;4594;50.994;7.126;2022-08-30T14:06:42;100933.00;;;34.00
9119;BMP180;4594;50.994;7.126;2022-08-30T14:09:08;100937.00;;;34.00
9119;BMP180;4594;50.994;7.126;2022-08-30T14:11:35;100938.00;;;33.90
9119;BMP180;4594;50.994;7.126;2022-08-30T14:14:02;100940.00;;;33.90
9119;BMP180;4594;50.994;7.126;2022-08-30T14:16:29;100926.00;;;33.90
9119;BMP180;4594;50.994;7.126;2022-08-30T14:18:57;100932.00;;;33.80
9119;BMP180;4594;50.994;7.126;2022-08-30T14:21:23;100926.00;;;33.80
9119;BMP180;4594;50.994;7.126;2022-08-30T14:23:49;100920.00;;;33.70
9119;BMP180;4594;50.994;7.126;2022-08-30T14:26:20;100926.00;;;33.70
9119;BMP180;4594;50.994;7.126;2022-08-30T14:28:46;100927.00;;;33.70
9119;BMP180;4594;50.994;7.126;2022-08-30T14:31:13;100924.00;;;33.60
9119;BMP180;4594;50.994;7.126;2022-08-30T14:33:41;100917.00;;;33.60
9119;BMP180;4594;50.994;7.126;2022-08-30T14:36:07;100924.00;;;33.60
9119;BMP180;4594;50.994;7.126;2022-08-30T14:38:33;100925.00;;;33.50
9119;BMP180;4594;50.994;7.126;2022-08-30T14:40:59;100920.00;;;33.50
9119;BMP180;4594;50.994;7.126;2022-08-30T14:43:25;100912.00;;;33.40
9119;BMP180;4594;50.994;7.126;2022-08-30T14:45:50;100913.00;;;33.30
9119;BMP180;4594;50.994;7.126;2022-08-30T14:48:16;100914.00;;;33.30
9119;BMP180;4594;50.994;7.126;2022-08-30T14:50:42;100922.00;;;33.20
9119;BMP180;4594;50.994;7.126;2022-08-30T14:53:08;100904.00;;;33.20
9119;BMP180;4594;50.994;7.126;2022-08-30T14:55:35;100903.00;;;33.10
9119;BMP180;4594;50.994;7.126;2022-08-30T14:58:01;100897.00;;;33.10
9119;BMP180;4594;50.994;7.126;2022-08-30T15:00:27;100898.00;;;33.10
9119;BMP180;4594;50.994;7.126;2022-08-30T15:02:52;100893.00;;;33.10
9119;BMP180;4594;50.994;7.126;2022-08-30T15:05:18;100892.00;;;33.00
9119;BMP180;4594;50.994;7.126;2022-08-30T15:07:48;100900.00;;;33.00
9119;BMP180;4594;50.994;7.126;2022-08-30T15:10:16;100890.00;;;33.00
9119;BMP180;4594;50.994;7.126;2022-08-30T15:12:47;100882.00;;;33.00
9119;BMP180;4594;50.994;7.126;2022-08-30T15:15:16;100881.00;;;32.90
9119;BMP180;4594;50.994;7.126;2022-08-30T15:17:45;100872.00;;;32.90
9119;BMP180;4594;50.994;7.126;2022-08-30T15:20:11;100876.00;;;32.90
9119;BMP180;4594;50.994;7.126;2022-08-30T15:22:37;100873.00;;;32.90
9119;BMP180;4594;50.994;7.126;2022-08-30T15:25:04;100874.00;;;32.80
9119;BMP180;4594;50.994;7.126;2022-08-30T15:27:30;100876.00;;;32.80
9119;BMP180;4594;50.994;7.126;2022-08-30T15:29:55;100871.00;;;32.70
9119;BMP180;4594;50.994;7.126;2022-08-30T15:32:21;100863.00;;;32.70
9119;BMP180;4594;50.994;7.126;2022-08-30T15:34:47;100868.00;;;32.60
9119;BMP180;4594;50.994;7.126;2022-08-30T15:37:13;100862.00;;;32.60
9119;BMP180;4594;50.994;7.126;2022-08-30T15:39:50;100872.00;;;32.50
9119;BMP180;4594;50.994;7.126;2022-08-30T15:42:16;100858.00;;;32.50